logo
Search for airport 
image banner adimage banner adimage banner ad
image banner ad

SKHR - Chaparrito

Located in , Colombia

ICAO - , IATA -

Data provided by Airmate  

General information

Coordinates: N5°33'36" W71°13'2"
Elevation is 452 feet MSL.
Magnetic variation is -10° East
View others Airports in Casanare

Operational data

Special qualification required
Current time UTC:
Current local time:
Weather at : - ( 0 km )
METAR: ZMUB 141800Z VRB02MPS 9999 FEW030CB BKN033 18/14 Q1011 NOSIG RMK QFE651.6 75 NT
View NOTAMs / SUP AIP / TFR affecting this airport [VIEW]
Communications frequencies: [VIEW]

Runways:

Airport contact information

Address: Colombia

Satellite view of SKHR